sensor_id;sensor_type;location;lat;lon;timestamp;P1;durP1;ratioP1;P2;durP2;ratioP2
31378;SDS011;61664;48.112;11.662;2023-02-12T00:01:22;15.70;;;9.85;;
31378;SDS011;61664;48.112;11.662;2023-02-12T00:03:50;16.20;;;10.70;;
31378;SDS011;61664;48.112;11.662;2023-02-12T00:06:18;16.13;;;11.25;;
31378;SDS011;61664;48.112;11.662;2023-02-12T00:08:47;16.13;;;11.02;;
31378;SDS011;61664;48.112;11.662;2023-02-12T00:11:17;16.95;;;10.80;;
31378;SDS011;61664;48.112;11.662;2023-02-12T00:13:50;15.38;;;10.43;;
31378;SDS011;61664;48.112;11.662;2023-02-12T00:16:20;16.58;;;10.95;;
31378;SDS011;61664;48.112;11.662;2023-02-12T00:18:52;15.75;;;11.50;;
31378;SDS011;61664;48.112;11.662;2023-02-12T00:21:21;17.40;;;11.40;;
31378;SDS011;61664;48.112;11.662;2023-02-12T00:23:49;15.00;;;11.15;;
31378;SDS011;61664;48.112;11.662;2023-02-12T00:26:16;15.00;;;10.90;;
31378;SDS011;61664;48.112;11.662;2023-02-12T00:28:46;16.55;;;10.85;;
31378;SDS011;61664;48.112;11.662;2023-02-12T00:31:14;13.55;;;9.77;;
31378;SDS011;61664;48.112;11.662;2023-02-12T00:33:45;18.77;;;11.48;;
31378;SDS011;61664;48.112;11.662;2023-02-12T00:36:12;15.75;;;11.60;;
31378;SDS011;61664;48.112;11.662;2023-02-12T00:38:42;14.05;;;10.13;;
31378;SDS011;61664;48.112;11.662;2023-02-12T00:41:10;15.98;;;10.02;;
31378;SDS011;61664;48.112;11.662;2023-02-12T00:43:38;18.52;;;11.77;;
31378;SDS011;61664;48.112;11.662;2023-02-12T00:46:05;15.02;;;10.55;;
31378;SDS011;61664;48.112;11.662;2023-02-12T00:48:32;17.75;;;11.25;;
31378;SDS011;61664;48.112;11.662;2023-02-12T00:51:01;17.27;;;10.90;;
31378;SDS011;61664;48.112;11.662;2023-02-12T00:53:29;19.65;;;11.20;;
31378;SDS011;61664;48.112;11.662;2023-02-12T00:55:57;17.40;;;11.10;;
31378;SDS011;61664;48.112;11.662;2023-02-12T00:58:25;14.43;;;10.30;;
31378;SDS011;61664;48.112;11.662;2023-02-12T01:00:52;17.60;;;12.10;;
31378;SDS011;61664;48.112;11.662;2023-02-12T01:03:20;16.65;;;11.23;;
31378;SDS011;61664;48.112;11.662;2023-02-12T01:05:47;17.30;;;11.25;;
31378;SDS011;61664;48.112;11.662;2023-02-12T01:08:14;17.75;;;10.75;;
31378;SDS011;61664;48.112;11.662;2023-02-12T01:10:42;14.80;;;11.18;;
31378;SDS011;61664;48.112;11.662;2023-02-12T01:13:11;18.40;;;11.40;;
31378;SDS011;61664;48.112;11.662;2023-02-12T01:15:40;17.08;;;11.05;;
31378;SDS011;61664;48.112;11.662;2023-02-12T01:18:07;16.63;;;10.48;;
31378;SDS011;61664;48.112;11.662;2023-02-12T01:20:35;19.30;;;11.60;;
31378;SDS011;61664;48.112;11.662;2023-02-12T01:23:02;17.10;;;11.45;;
31378;SDS011;61664;48.112;11.662;2023-02-12T01:25:32;16.83;;;11.57;;
31378;SDS011;61664;48.112;11.662;2023-02-12T01:27:58;20.38;;;11.57;;
31378;SDS011;61664;48.112;11.662;2023-02-12T01:30:25;18.23;;;11.82;;
31378;SDS011;61664;48.112;11.662;2023-02-12T01:32:52;17.92;;;11.82;;
31378;SDS011;61664;48.112;11.662;2023-02-12T01:35:20;14.15;;;10.70;;
31378;SDS011;61664;48.112;11.662;2023-02-12T01:37:47;18.40;;;11.88;;
31378;SDS011;61664;48.112;11.662;2023-02-12T01:40:14;16.95;;;11.65;;
31378;SDS011;61664;48.112;11.662;2023-02-12T01:42:44;19.90;;;12.38;;
31378;SDS011;61664;48.112;11.662;2023-02-12T01:47:38;21.02;;;12.20;;
31378;SDS011;61664;48.112;11.662;2023-02-12T01:50:11;20.73;;;12.38;;
31378;SDS011;61664;48.112;11.662;2023-02-12T01:52:43;21.58;;;12.38;;
31378;SDS011;61664;48.112;11.662;2023-02-12T01:55:19;21.67;;;12.80;;
31378;SDS011;61664;48.112;11.662;2023-02-12T01:57:48;21.92;;;13.65;;
31378;SDS011;61664;48.112;11.662;2023-02-12T02:00:17;16.63;;;11.13;;
31378;SDS011;61664;48.112;11.662;2023-02-12T02:02:50;16.83;;;11.00;;
31378;SDS011;61664;48.112;11.662;2023-02-12T02:05:32;15.25;;;9.95;;
31378;SDS011;61664;48.112;11.662;2023-02-12T02:08:19;12.55;;;9.13;;
31378;SDS011;61664;48.112;11.662;2023-02-12T02:10:48;15.93;;;9.40;;
31378;SDS011;61664;48.112;11.662;2023-02-12T02:13:14;15.30;;;10.35;;
31378;SDS011;61664;48.112;11.662;2023-02-12T02:16:04;11.55;;;8.80;;
31378;SDS011;61664;48.112;11.662;2023-02-12T02:18:56;14.63;;;9.52;;
31378;SDS011;61664;48.112;11.662;2023-02-12T02:28:05;13.00;;;8.43;;
31378;SDS011;61664;48.112;11.662;2023-02-12T02:30:59;13.32;;;8.38;;
31378;SDS011;61664;48.112;11.662;2023-02-12T02:33:47;11.43;;;8.73;;
31378;SDS011;61664;48.112;11.662;2023-02-12T02:36:34;13.07;;;8.45;;
31378;SDS011;61664;48.112;11.662;2023-02-12T02:42:24;12.40;;;8.85;;
31378;SDS011;61664;48.112;11.662;2023-02-12T02:48:21;13.32;;;9.50;;
31378;SDS011;61664;48.112;11.662;2023-02-12T02:50:55;10.85;;;8.40;;
31378;SDS011;61664;48.112;11.662;2023-02-12T02:53:34;13.80;;;9.45;;
31378;SDS011;61664;48.112;11.662;2023-02-12T02:56:12;15.90;;;9.57;;
31378;SDS011;61664;48.112;11.662;2023-02-12T02:58:51;13.02;;;10.15;;
31378;SDS011;61664;48.112;11.662;2023-02-12T03:01:26;17.05;;;10.20;;
31378;SDS011;61664;48.112;11.662;2023-02-12T03:04:06;14.85;;;10.00;;
31378;SDS011;61664;48.112;11.662;2023-02-12T03:06:42;15.10;;;10.63;;
31378;SDS011;61664;48.112;11.662;2023-02-12T03:09:23;14.45;;;10.00;;
31378;SDS011;61664;48.112;11.662;2023-02-12T03:12:14;13.43;;;9.93;;
31378;SDS011;61664;48.112;11.662;2023-02-12T03:14:52;13.27;;;10.45;;
31378;SDS011;61664;48.112;11.662;2023-02-12T03:17:33;13.55;;;9.48;;
31378;SDS011;61664;48.112;11.662;2023-02-12T03:22:53;13.18;;;9.80;;
31378;SDS011;61664;48.112;11.662;2023-02-12T03:25:29;15.18;;;10.05;;
31378;SDS011;61664;48.112;11.662;2023-02-12T03:28:17;19.42;;;10.52;;
31378;SDS011;61664;48.112;11.662;2023-02-12T03:30:56;12.05;;;9.77;;
31378;SDS011;61664;48.112;11.662;2023-02-12T03:33:41;18.20;;;11.02;;
31378;SDS011;61664;48.112;11.662;2023-02-12T03:36:25;14.55;;;9.85;;
31378;SDS011;61664;48.112;11.662;2023-02-12T03:39:11;16.70;;;10.63;;
31378;SDS011;61664;48.112;11.662;2023-02-12T03:42:04;17.13;;;10.18;;
31378;SDS011;61664;48.112;11.662;2023-02-12T03:49:59;11.27;;;8.82;;
31378;SDS011;61664;48.112;11.662;2023-02-12T03:52:39;15.60;;;9.88;;
31378;SDS011;61664;48.112;11.662;2023-02-12T03:55:08;14.30;;;9.98;;
31378;SDS011;61664;48.112;11.662;2023-02-12T03:57:38;16.63;;;10.38;;
31378;SDS011;61664;48.112;11.662;2023-02-12T04:00:11;16.27;;;10.40;;
31378;SDS011;61664;48.112;11.662;2023-02-12T04:02:44;14.48;;;10.25;;
31378;SDS011;61664;48.112;11.662;2023-02-12T04:05:18;13.40;;;10.07;;
31378;SDS011;61664;48.112;11.662;2023-02-12T04:07:51;14.18;;;10.35;;
31378;SDS011;61664;48.112;11.662;2023-02-12T04:10:30;15.82;;;10.45;;
31378;SDS011;61664;48.112;11.662;2023-02-12T04:13:22;16.92;;;11.20;;
31378;SDS011;61664;48.112;11.662;2023-02-12T04:18:56;13.32;;;10.32;;
31378;SDS011;61664;48.112;11.662;2023-02-12T04:24:38;16.42;;;10.60;;
31378;SDS011;61664;48.112;11.662;2023-02-12T04:27:24;14.63;;;10.07;;
31378;SDS011;61664;48.112;11.662;2023-02-12T04:32:58;14.77;;;11.05;;
31378;SDS011;61664;48.112;11.662;2023-02-12T04:35:39;13.30;;;10.07;;
31378;SDS011;61664;48.112;11.662;2023-02-12T04:38:19;15.45;;;10.25;;
31378;SDS011;61664;48.112;11.662;2023-02-12T04:40:52;15.55;;;10.45;;
31378;SDS011;61664;48.112;11.662;2023-02-12T04:43:26;18.00;;;10.48;;
31378;SDS011;61664;48.112;11.662;2023-02-12T04:45:55;16.00;;;10.65;;
31378;SDS011;61664;48.112;11.662;2023-02-12T04:48:23;17.10;;;9.95;;
31378;SDS011;61664;48.112;11.662;2023-02-12T04:50:50;15.05;;;10.43;;
31378;SDS011;61664;48.112;11.662;2023-02-12T04:53:17;15.23;;;10.40;;
31378;SDS011;61664;48.112;11.662;2023-02-12T04:55:44;15.82;;;10.60;;
31378;SDS011;61664;48.112;11.662;2023-02-12T04:58:12;15.38;;;10.65;;
31378;SDS011;61664;48.112;11.662;2023-02-12T05:00:39;17.92;;;11.65;;
31378;SDS011;61664;48.112;11.662;2023-02-12T05:03:06;13.75;;;10.38;;
31378;SDS011;61664;48.112;11.662;2023-02-12T05:05:33;13.82;;;9.82;;
31378;SDS011;61664;48.112;11.662;2023-02-12T05:08:00;18.63;;;11.27;;
31378;SDS011;61664;48.112;11.662;2023-02-12T05:10:28;16.10;;;10.88;;
31378;SDS011;61664;48.112;11.662;2023-02-12T05:12:55;15.85;;;10.82;;
31378;SDS011;61664;48.112;11.662;2023-02-12T05:15:22;16.77;;;10.95;;
31378;SDS011;61664;48.112;11.662;2023-02-12T05:17:49;14.60;;;10.50;;
31378;SDS011;61664;48.112;11.662;2023-02-12T05:20:16;16.63;;;10.73;;
31378;SDS011;61664;48.112;11.662;2023-02-12T05:22:43;15.73;;;9.88;;
31378;SDS011;61664;48.112;11.662;2023-02-12T05:25:09;16.70;;;11.73;;
31378;SDS011;61664;48.112;11.662;2023-02-12T05:27:37;18.25;;;11.13;;
31378;SDS011;61664;48.112;11.662;2023-02-12T05:30:04;15.82;;;10.57;;
31378;SDS011;61664;48.112;11.662;2023-02-12T05:32:32;17.20;;;11.05;;
31378;SDS011;61664;48.112;11.662;2023-02-12T05:34:59;16.83;;;10.35;;
31378;SDS011;61664;48.112;11.662;2023-02-12T05:37:26;14.80;;;10.18;;
31378;SDS011;61664;48.112;11.662;2023-02-12T05:39:53;16.38;;;10.75;;
31378;SDS011;61664;48.112;11.662;2023-02-12T05:42:19;15.80;;;10.65;;
31378;SDS011;61664;48.112;11.662;2023-02-12T05:44:46;17.88;;;11.23;;
31378;SDS011;61664;48.112;11.662;2023-02-12T05:47:13;14.88;;;10.52;;
31378;SDS011;61664;48.112;11.662;2023-02-12T05:49:40;17.88;;;11.38;;
31378;SDS011;61664;48.112;11.662;2023-02-12T05:52:07;13.63;;;9.73;;
31378;SDS011;61664;48.112;11.662;2023-02-12T05:54:34;14.60;;;9.95;;
31378;SDS011;61664;48.112;11.662;2023-02-12T05:57:01;15.15;;;10.35;;
31378;SDS011;61664;48.112;11.662;2023-02-12T05:59:28;17.58;;;11.98;;
31378;SDS011;61664;48.112;11.662;2023-02-12T06:01:55;19.17;;;11.73;;
31378;SDS011;61664;48.112;11.662;2023-02-12T06:04:25;16.80;;;11.77;;
31378;SDS011;61664;48.112;11.662;2023-02-12T06:06:55;15.68;;;10.85;;
31378;SDS011;61664;48.112;11.662;2023-02-12T06:09:22;17.75;;;11.48;;
31378;SDS011;61664;48.112;11.662;2023-02-12T06:11:50;17.58;;;11.43;;
31378;SDS011;61664;48.112;11.662;2023-02-12T06:14:18;20.25;;;11.90;;
31378;SDS011;61664;48.112;11.662;2023-02-12T06:16:47;14.60;;;10.50;;
31378;SDS011;61664;48.112;11.662;2023-02-12T06:19:16;20.48;;;11.38;;
31378;SDS011;61664;48.112;11.662;2023-02-12T06:21:45;17.17;;;10.32;;
31378;SDS011;61664;48.112;11.662;2023-02-12T06:24:14;15.70;;;10.70;;
31378;SDS011;61664;48.112;11.662;2023-02-12T06:26:42;16.65;;;10.90;;
31378;SDS011;61664;48.112;11.662;2023-02-12T06:29:10;13.95;;;10.07;;
31378;SDS011;61664;48.112;11.662;2023-02-12T06:31:38;15.18;;;10.13;;
31378;SDS011;61664;48.112;11.662;2023-02-12T06:34:07;16.58;;;11.15;;
31378;SDS011;61664;48.112;11.662;2023-02-12T06:36:36;16.35;;;10.60;;
31378;SDS011;61664;48.112;11.662;2023-02-12T06:39:07;17.40;;;11.27;;
31378;SDS011;61664;48.112;11.662;2023-02-12T06:41:34;14.50;;;10.52;;
31378;SDS011;61664;48.112;11.662;2023-02-12T06:44:01;17.98;;;11.57;;
31378;SDS011;61664;48.112;11.662;2023-02-12T06:46:29;16.70;;;10.48;;
31378;SDS011;61664;48.112;11.662;2023-02-12T06:48:57;17.83;;;10.93;;
31378;SDS011;61664;48.112;11.662;2023-02-12T06:51:26;16.08;;;11.43;;
31378;SDS011;61664;48.112;11.662;2023-02-12T06:53:55;20.00;;;11.52;;
31378;SDS011;61664;48.112;11.662;2023-02-12T06:56:24;17.20;;;11.27;;
31378;SDS011;61664;48.112;11.662;2023-02-12T06:58:56;17.10;;;10.85;;
31378;SDS011;61664;48.112;11.662;2023-02-12T07:01:26;22.02;;;12.98;;
31378;SDS011;61664;48.112;11.662;2023-02-12T07:03:59;18.77;;;12.02;;
31378;SDS011;61664;48.112;11.662;2023-02-12T07:06:28;16.27;;;10.70;;
31378;SDS011;61664;48.112;11.662;2023-02-12T07:08:57;15.75;;;10.77;;
31378;SDS011;61664;48.112;11.662;2023-02-12T07:11:24;15.20;;;11.73;;
31378;SDS011;61664;48.112;11.662;2023-02-12T07:13:54;21.48;;;11.82;;
31378;SDS011;61664;48.112;11.662;2023-02-12T07:16:21;20.63;;;12.00;;
31378;SDS011;61664;48.112;11.662;2023-02-12T07:18:48;18.85;;;12.80;;
31378;SDS011;61664;48.112;11.662;2023-02-12T07:21:15;22.35;;;12.73;;
31378;SDS011;61664;48.112;11.662;2023-02-12T07:23:49;17.55;;;11.00;;
31378;SDS011;61664;48.112;11.662;2023-02-12T07:26:18;21.52;;;11.32;;
31378;SDS011;61664;48.112;11.662;2023-02-12T07:28:47;19.13;;;12.02;;
31378;SDS011;61664;48.112;11.662;2023-02-12T07:31:20;19.08;;;11.82;;
31378;SDS011;61664;48.112;11.662;2023-02-12T07:33:52;24.17;;;11.57;;
31378;SDS011;61664;48.112;11.662;2023-02-12T07:36:21;18.33;;;11.45;;
31378;SDS011;61664;48.112;11.662;2023-02-12T07:38:51;17.92;;;11.60;;
31378;SDS011;61664;48.112;11.662;2023-02-12T07:41:20;22.17;;;11.70;;
31378;SDS011;61664;48.112;11.662;2023-02-12T07:43:53;20.40;;;12.27;;
31378;SDS011;61664;48.112;11.662;2023-02-12T07:46:25;19.20;;;12.65;;
31378;SDS011;61664;48.112;11.662;2023-02-12T07:48:57;18.45;;;12.07;;
31378;SDS011;61664;48.112;11.662;2023-02-12T07:51:26;16.40;;;10.97;;
31378;SDS011;61664;48.112;11.662;2023-02-12T07:53:54;20.20;;;11.73;;
31378;SDS011;61664;48.112;11.662;2023-02-12T07:56:22;15.98;;;10.50;;
31378;SDS011;61664;48.112;11.662;2023-02-12T07:58:58;18.48;;;11.77;;
31378;SDS011;61664;48.112;11.662;2023-02-12T08:01:33;18.50;;;12.15;;
31378;SDS011;61664;48.112;11.662;2023-02-12T08:04:06;16.23;;;10.65;;
31378;SDS011;61664;48.112;11.662;2023-02-12T08:06:39;17.70;;;10.45;;
31378;SDS011;61664;48.112;11.662;2023-02-12T08:11:39;16.20;;;10.07;;
31378;SDS011;61664;48.112;11.662;2023-02-12T08:14:08;17.08;;;11.15;;
31378;SDS011;61664;48.112;11.662;2023-02-12T08:16:40;18.60;;;11.57;;
31378;SDS011;61664;48.112;11.662;2023-02-12T08:19:08;20.48;;;12.00;;
31378;SDS011;61664;48.112;11.662;2023-02-12T08:21:44;18.27;;;11.60;;
31378;SDS011;61664;48.112;11.662;2023-02-12T08:24:15;19.30;;;11.77;;
31378;SDS011;61664;48.112;11.662;2023-02-12T08:26:42;20.23;;;11.70;;
31378;SDS011;61664;48.112;11.662;2023-02-12T08:29:11;21.95;;;12.48;;
31378;SDS011;61664;48.112;11.662;2023-02-12T08:31:42;24.38;;;12.30;;
31378;SDS011;61664;48.112;11.662;2023-02-12T08:34:16;20.02;;;12.95;;
31378;SDS011;61664;48.112;11.662;2023-02-12T08:36:49;19.95;;;11.82;;
31378;SDS011;61664;48.112;11.662;2023-02-12T08:39:19;21.98;;;13.00;;
31378;SDS011;61664;48.112;11.662;2023-02-12T08:41:47;21.15;;;12.70;;
31378;SDS011;61664;48.112;11.662;2023-02-12T08:44:15;21.58;;;12.27;;
31378;SDS011;61664;48.112;11.662;2023-02-12T08:46:43;22.30;;;13.20;;
31378;SDS011;61664;48.112;11.662;2023-02-12T08:49:16;23.17;;;13.57;;
31378;SDS011;61664;48.112;11.662;2023-02-12T08:51:47;20.42;;;11.88;;
31378;SDS011;61664;48.112;11.662;2023-02-12T08:56:47;17.90;;;11.95;;
31378;SDS011;61664;48.112;11.662;2023-02-12T08:59:15;25.45;;;14.27;;
31378;SDS011;61664;48.112;11.662;2023-02-12T09:01:42;22.88;;;13.40;;
31378;SDS011;61664;48.112;11.662;2023-02-12T09:04:17;20.40;;;12.93;;
31378;SDS011;61664;48.112;11.662;2023-02-12T09:06:48;21.55;;;13.45;;
31378;SDS011;61664;48.112;11.662;2023-02-12T09:09:16;20.60;;;13.02;;
31378;SDS011;61664;48.112;11.662;2023-02-12T09:11:45;20.05;;;11.35;;
31378;SDS011;61664;48.112;11.662;2023-02-12T09:14:13;22.27;;;11.68;;
31378;SDS011;61664;48.112;11.662;2023-02-12T09:16:44;21.35;;;13.00;;
31378;SDS011;61664;48.112;11.662;2023-02-12T09:19:11;15.77;;;10.50;;
31378;SDS011;61664;48.112;11.662;2023-02-12T09:21:40;18.60;;;11.65;;
31378;SDS011;61664;48.112;11.662;2023-02-12T09:24:08;19.38;;;12.13;;
31378;SDS011;61664;48.112;11.662;2023-02-12T09:26:35;20.17;;;11.63;;
31378;SDS011;61664;48.112;11.662;2023-02-12T09:29:03;17.52;;;10.88;;
31378;SDS011;61664;48.112;11.662;2023-02-12T09:31:31;16.35;;;11.18;;
31378;SDS011;61664;48.112;11.662;2023-02-12T09:34:00;16.45;;;10.38;;
31378;SDS011;61664;48.112;11.662;2023-02-12T09:36:31;15.70;;;9.93;;
31378;SDS011;61664;48.112;11.662;2023-02-12T09:38:59;17.25;;;10.60;;
31378;SDS011;61664;48.112;11.662;2023-02-12T09:46:39;16.45;;;11.32;;
31378;SDS011;61664;48.112;11.662;2023-02-12T09:52:32;14.05;;;9.13;;
31378;SDS011;61664;48.112;11.662;2023-02-12T09:55:00;12.18;;;7.47;;
31378;SDS011;61664;48.112;11.662;2023-02-12T09:57:29;9.88;;;6.53;;
31378;SDS011;61664;48.112;11.662;2023-02-12T10:00:14;8.77;;;6.97;;
31378;SDS011;61664;48.112;11.662;2023-02-12T10:02:45;7.22;;;6.07;;
31378;SDS011;61664;48.112;11.662;2023-02-12T10:05:19;5.32;;;4.80;;
31378;SDS011;61664;48.112;11.662;2023-02-12T10:19:16;1.30;;;0.63;;
31378;SDS011;61664;48.112;11.662;2023-02-12T10:22:23;0.98;;;0.65;;
31378;SDS011;61664;48.112;11.662;2023-02-12T10:28:27;0.50;;;0.50;;
31378;SDS011;61664;48.112;11.662;2023-02-12T10:31:06;1.20;;;1.10;;
31378;SDS011;61664;48.112;11.662;2023-02-12T10:33:45;2.05;;;1.92;;
31378;SDS011;61664;48.112;11.662;2023-02-12T10:36:26;2.58;;;2.38;;
31378;SDS011;61664;48.112;11.662;2023-02-12T10:42:00;2.85;;;2.58;;
31378;SDS011;61664;48.112;11.662;2023-02-12T10:44:36;2.15;;;1.95;;
31378;SDS011;61664;48.112;11.662;2023-02-12T10:47:03;1.85;;;1.75;;
31378;SDS011;61664;48.112;11.662;2023-02-12T10:49:30;2.20;;;2.00;;
31378;SDS011;61664;48.112;11.662;2023-02-12T10:55:26;2.15;;;1.95;;
31378;SDS011;61664;48.112;11.662;2023-02-12T10:57:58;2.55;;;2.35;;
31378;SDS011;61664;48.112;11.662;2023-02-12T11:00:31;2.30;;;1.85;;
31378;SDS011;61664;48.112;11.662;2023-02-12T11:05:38;2.25;;;2.05;;
31378;SDS011;61664;48.112;11.662;2023-02-12T11:08:31;2.25;;;2.05;;
31378;SDS011;61664;48.112;11.662;2023-02-12T11:11:01;1.83;;;1.67;;
31378;SDS011;61664;48.112;11.662;2023-02-12T11:13:34;2.13;;;1.92;;
31378;SDS011;61664;48.112;11.662;2023-02-12T11:16:02;1.92;;;1.83;;
31378;SDS011;61664;48.112;11.662;2023-02-12T11:18:30;2.42;;;2.13;;
31378;SDS011;61664;48.112;11.662;2023-02-12T11:21:00;2.15;;;1.95;;
31378;SDS011;61664;48.112;11.662;2023-02-12T11:23:37;2.40;;;2.20;;
31378;SDS011;61664;48.112;11.662;2023-02-12T11:28:54;2.30;;;2.10;;
31378;SDS011;61664;48.112;11.662;2023-02-12T11:31:42;2.42;;;2.22;;
31378;SDS011;61664;48.112;11.662;2023-02-12T11:34:27;1.63;;;1.50;;
31378;SDS011;61664;48.112;11.662;2023-02-12T11:36:55;1.65;;;1.50;;
31378;SDS011;61664;48.112;11.662;2023-02-12T11:39:26;1.17;;;0.93;;
31378;SDS011;61664;48.112;11.662;2023-02-12T11:42:15;1.85;;;0.60;;
31378;SDS011;61664;48.112;11.662;2023-02-12T11:44:49;0.30;;;0.30;;
31378;SDS011;61664;48.112;11.662;2023-02-12T11:47:31;0.57;;;0.52;;
31378;SDS011;61664;48.112;11.662;2023-02-12T11:50:06;0.60;;;0.50;;
31378;SDS011;61664;48.112;11.662;2023-02-12T11:52:40;0.60;;;0.60;;
31378;SDS011;61664;48.112;11.662;2023-02-12T11:57:51;0.65;;;0.55;;
31378;SDS011;61664;48.112;11.662;2023-02-12T12:00:29;0.57;;;0.50;;
31378;SDS011;61664;48.112;11.662;2023-02-12T12:03:09;0.65;;;0.52;;
31378;SDS011;61664;48.112;11.662;2023-02-12T12:06:02;0.77;;;0.60;;
31378;SDS011;61664;48.112;11.662;2023-02-12T12:17:44;0.85;;;0.60;;
31378;SDS011;61664;48.112;11.662;2023-02-12T12:20:51;0.52;;;0.52;;
31378;SDS011;61664;48.112;11.662;2023-02-12T12:23:39;0.82;;;0.70;;
31378;SDS011;61664;48.112;11.662;2023-02-12T12:26:22;0.77;;;0.77;;
31378;SDS011;61664;48.112;11.662;2023-02-12T12:28:56;0.80;;;0.80;;
31378;SDS011;61664;48.112;11.662;2023-02-12T12:31:40;0.60;;;0.60;;
31378;SDS011;61664;48.112;11.662;2023-02-12T12:34:12;0.63;;;0.60;;
31378;SDS011;61664;48.112;11.662;2023-02-12T12:36:47;0.85;;;0.70;;
31378;SDS011;61664;48.112;11.662;2023-02-12T12:39:53;0.73;;;0.50;;
31378;SDS011;61664;48.112;11.662;2023-02-12T12:46:35;0.63;;;0.63;;
31378;SDS011;61664;48.112;11.662;2023-02-12T12:55:43;2.05;;;0.70;;
31378;SDS011;61664;48.112;11.662;2023-02-12T12:59:19;0.70;;;0.70;;
31378;SDS011;61664;48.112;11.662;2023-02-12T13:02:25;0.93;;;0.80;;
31378;SDS011;61664;48.112;11.662;2023-02-12T13:11:22;1.40;;;1.30;;
31378;SDS011;61664;48.112;11.662;2023-02-12T13:23:03;1.55;;;1.45;;
31378;SDS011;61664;48.112;11.662;2023-02-12T13:28:32;1.58;;;1.48;;
31378;SDS011;61664;48.112;11.662;2023-02-12T13:31:06;2.10;;;1.70;;
31378;SDS011;61664;48.112;11.662;2023-02-12T13:33:59;2.10;;;1.80;;
31378;SDS011;61664;48.112;11.662;2023-02-12T13:36:36;1.83;;;1.73;;
31378;SDS011;61664;48.112;11.662;2023-02-12T13:47:33;1.55;;;1.45;;
31378;SDS011;61664;48.112;11.662;2023-02-12T13:56:42;1.60;;;1.50;;
31378;SDS011;61664;48.112;11.662;2023-02-12T14:01:57;5.57;;;4.55;;
31378;SDS011;61664;48.112;11.662;2023-02-12T14:07:21;5.75;;;4.65;;
31378;SDS011;61664;48.112;11.662;2023-02-12T14:14:53;5.90;;;4.75;;
31378;SDS011;61664;48.112;11.662;2023-02-12T14:20:07;5.07;;;3.78;;
31378;SDS011;61664;48.112;11.662;2023-02-12T14:30:46;3.42;;;3.13;;
31378;SDS011;61664;48.112;11.662;2023-02-12T14:33:46;3.42;;;3.13;;
31378;SDS011;61664;48.112;11.662;2023-02-12T14:36:35;3.40;;;3.10;;
31378;SDS011;61664;48.112;11.662;2023-02-12T14:41:51;3.40;;;3.03;;
31378;SDS011;61664;48.112;11.662;2023-02-12T14:44:45;3.30;;;3.00;;
31378;SDS011;61664;48.112;11.662;2023-02-12T14:49:56;4.32;;;3.50;;
31378;SDS011;61664;48.112;11.662;2023-02-12T14:52:32;3.72;;;3.33;;
31378;SDS011;61664;48.112;11.662;2023-02-12T14:57:49;3.45;;;3.15;;
31378;SDS011;61664;48.112;11.662;2023-02-12T15:00:37;3.08;;;2.85;;
31378;SDS011;61664;48.112;11.662;2023-02-12T15:11:42;3.53;;;3.17;;
31378;SDS011;61664;48.112;11.662;2023-02-12T15:14:33;4.78;;;3.65;;
31378;SDS011;61664;48.112;11.662;2023-02-12T15:17:08;7.38;;;4.50;;
31378;SDS011;61664;48.112;11.662;2023-02-12T15:22:33;4.43;;;3.35;;
31378;SDS011;61664;48.112;11.662;2023-02-12T15:27:59;4.25;;;3.58;;
31378;SDS011;61664;48.112;11.662;2023-02-12T15:30:31;5.35;;;3.92;;
31378;SDS011;61664;48.112;11.662;2023-02-12T15:33:05;5.13;;;4.18;;
31378;SDS011;61664;48.112;11.662;2023-02-12T15:35:38;4.97;;;3.83;;
31378;SDS011;61664;48.112;11.662;2023-02-12T15:38:16;4.07;;;3.70;;
31378;SDS011;61664;48.112;11.662;2023-02-12T15:40:56;4.40;;;3.67;;
31378;SDS011;61664;48.112;11.662;2023-02-12T15:43:26;3.85;;;3.55;;
31378;SDS011;61664;48.112;11.662;2023-02-12T15:46:00;4.30;;;3.90;;
31378;SDS011;61664;48.112;11.662;2023-02-12T15:48:32;4.20;;;3.55;;
31378;SDS011;61664;48.112;11.662;2023-02-12T15:53:55;5.75;;;4.72;;
31378;SDS011;61664;48.112;11.662;2023-02-12T15:56:25;4.93;;;4.43;;
31378;SDS011;61664;48.112;11.662;2023-02-12T15:58:54;5.40;;;4.40;;
31378;SDS011;61664;48.112;11.662;2023-02-12T16:01:27;5.68;;;4.97;;
31378;SDS011;61664;48.112;11.662;2023-02-12T16:04:01;5.05;;;4.53;;
31378;SDS011;61664;48.112;11.662;2023-02-12T16:06:32;6.68;;;4.75;;
31378;SDS011;61664;48.112;11.662;2023-02-12T16:09:11;7.73;;;4.97;;
31378;SDS011;61664;48.112;11.662;2023-02-12T16:11:51;6.82;;;4.30;;
31378;SDS011;61664;48.112;11.662;2023-02-12T16:14:23;6.97;;;4.55;;
31378;SDS011;61664;48.112;11.662;2023-02-12T16:20:26;7.95;;;5.38;;
31378;SDS011;61664;48.112;11.662;2023-02-12T16:22:53;5.43;;;4.40;;
31378;SDS011;61664;48.112;11.662;2023-02-12T16:25:25;8.57;;;5.78;;
31378;SDS011;61664;48.112;11.662;2023-02-12T16:30:32;9.20;;;6.00;;
31378;SDS011;61664;48.112;11.662;2023-02-12T16:33:04;8.43;;;6.47;;
31378;SDS011;61664;48.112;11.662;2023-02-12T16:36:02;10.93;;;6.55;;
31378;SDS011;61664;48.112;11.662;2023-02-12T16:38:46;8.93;;;6.15;;
31378;SDS011;61664;48.112;11.662;2023-02-12T16:46:19;9.77;;;6.25;;
31378;SDS011;61664;48.112;11.662;2023-02-12T16:48:47;9.70;;;6.55;;
31378;SDS011;61664;48.112;11.662;2023-02-12T16:53:54;11.73;;;7.45;;
31378;SDS011;61664;48.112;11.662;2023-02-12T16:56:24;10.98;;;6.75;;
31378;SDS011;61664;48.112;11.662;2023-02-12T16:58:58;12.02;;;6.80;;
31378;SDS011;61664;48.112;11.662;2023-02-12T17:01:28;10.02;;;6.82;;
31378;SDS011;61664;48.112;11.662;2023-02-12T17:04:05;10.85;;;6.22;;
31378;SDS011;61664;48.112;11.662;2023-02-12T17:06:38;11.02;;;7.20;;
31378;SDS011;61664;48.112;11.662;2023-02-12T17:09:05;11.35;;;7.43;;
31378;SDS011;61664;48.112;11.662;2023-02-12T17:11:32;8.90;;;6.10;;
31378;SDS011;61664;48.112;11.662;2023-02-12T17:13:59;12.00;;;8.23;;
31378;SDS011;61664;48.112;11.662;2023-02-12T17:16:26;13.35;;;7.93;;
31378;SDS011;61664;48.112;11.662;2023-02-12T17:18:57;12.68;;;8.10;;
31378;SDS011;61664;48.112;11.662;2023-02-12T17:24:14;13.60;;;8.45;;
31378;SDS011;61664;48.112;11.662;2023-02-12T17:26:48;18.30;;;9.55;;
31378;SDS011;61664;48.112;11.662;2023-02-12T17:29:16;15.75;;;8.38;;
31378;SDS011;61664;48.112;11.662;2023-02-12T17:31:45;13.40;;;7.85;;
31378;SDS011;61664;48.112;11.662;2023-02-12T17:34:13;13.95;;;9.25;;
31378;SDS011;61664;48.112;11.662;2023-02-12T17:36:41;13.40;;;8.50;;
31378;SDS011;61664;48.112;11.662;2023-02-12T17:39:10;12.93;;;9.00;;
31378;SDS011;61664;48.112;11.662;2023-02-12T17:41:39;14.15;;;9.02;;
31378;SDS011;61664;48.112;11.662;2023-02-12T17:44:06;15.30;;;9.68;;
31378;SDS011;61664;48.112;11.662;2023-02-12T17:46:33;15.75;;;9.35;;
31378;SDS011;61664;48.112;11.662;2023-02-12T17:49:00;15.50;;;8.68;;
31378;SDS011;61664;48.112;11.662;2023-02-12T17:51:29;16.08;;;9.52;;
31378;SDS011;61664;48.112;11.662;2023-02-12T17:53:56;15.95;;;9.73;;
31378;SDS011;61664;48.112;11.662;2023-02-12T17:56:23;15.65;;;9.40;;
31378;SDS011;61664;48.112;11.662;2023-02-12T17:58:51;20.02;;;10.15;;
31378;SDS011;61664;48.112;11.662;2023-02-12T18:01:19;43.17;;;20.60;;
31378;SDS011;61664;48.112;11.662;2023-02-12T18:03:51;61.72;;;26.90;;